Nearby METAR Reports

 

KSJC - San Jose, California, USA
Distance from station: NE 14km
Updated: 28/11/2021 23:53
NOT Current
Few Clouds
Few Clouds
 Wind from calm
Wind: Calm
Temperature: 12°C
Dew Point: 7°C
Humidity: 72%
Barometer: 1022 hPa
Clouds: Few Clouds
Visibility: 16 km
Cloud details: Few Clouds 457 m
2021/11/29 07:53 KSJC 290753Z 00000KT 10SM FEW015 12/07 A3018 RMK AO2 SLP220 LAST T01170072 402170078
KNUQ - Moffett Nas/Mtn, California, USA
Distance from station: N 14km
Updated: 29/11/2021 18:30
Clear
Clear
 Wind from calm
Wind: Calm
Temperature: 15°C
Dew Point: 10°C
Humidity: 72%
Barometer: 1019.6 hPa
Clouds: Clear
Visibility: 16 km
2021/11/30 02:30 KNUQ 300230Z AUTO 00000KT 10SM CLR 15/10 A3011 RMK AO2
 
KPAO - Palo Alto, California, USA
Distance from station: NNW 23km
Updated: 29/11/2021 18:47
Clear
Clear
 Wind from WNW
Wind: WNW 6 km/h
Temperature: 14°C
Dew Point: 9°C
Humidity: 72%
Barometer: 1020 hPa
Clouds: Clear
Visibility: 16 km
2021/11/30 02:47 KPAO 300247Z 30003KT 10SM SKC 14/09 A3012
KRHV - San Jose/Reid, California, USA
Distance from station: ENE 19km
Updated: 29/11/2021 17:50
Clear
Clear
 Wind from calm
Wind: Calm
Temperature: 17°C
Dew Point: 9°C
Humidity: 59%
Barometer: 1019.6 hPa
Clouds: Clear
Visibility: 16 km
2021/11/30 01:50 KRHV 300150Z 00000KT 10SM SKC 17/09 A3011
 
KOAK - Oakland, California, USA
Distance from station: NNW 50km
Updated: 29/11/2021 17:53
Few Clouds
Few Clouds
 Wind from varies
Wind: varies 6 km/h
Temperature: 15°C
Dew Point: 11°C
Humidity: 77%
Barometer: 1019.6 hPa
Clouds: Few Clouds
Visibility: 16 km
Cloud details: Few Clouds 6096 m
2021/11/30 01:53 KOAK 300153Z VRB03KT 10SM FEW200 15/11 A3011 RMK AO2 SLP196 T01500106
KSQL - San Carlos Airpo, California, USA
Distance from station: NW 34km
Updated: 29/11/2021 17:47
Clear
Clear
 Wind from calm
Wind: Calm
Temperature: 17°C
Dew Point: 10°C
Humidity: 64%
Barometer: 1019.6 hPa
Clouds: Clear
Visibility: 16 km
2021/11/30 01:47 KSQL 300147Z 00000KT 10SM CLR 17/10 A3011
 
KSFO - San Francisco, California, USA
Distance from station: NW 49km
Updated: 29/11/2021 17:56
Few Clouds
Few Clouds
 Wind from WNW
Wind: WNW 19 km/h
Temperature: 14°C
Dew Point: 11°C
Humidity: 82%
Barometer: 1019.3 hPa
Clouds: Few Clouds
Visibility: 16 km
Cloud details: Few Clouds 183 m
2021/11/30 01:56 KSFO 300156Z 29010KT 10SM FEW006 14/11 A3010 RMK AO2 SLP194 T01440106
KE16 - San Martin, California, USA
Distance from station: ESE 43km
Updated: 29/11/2021 18:35
Clear
Clear
 Wind from NNW
Wind: NNW 9 km/h
Temperature: 16°C
Dew Point: 8°C
Humidity: 59%
Barometer: 1020 hPa
Clouds: Clear
Visibility: 16 km
2021/11/30 02:35 KE16 300235Z AUTO 33005KT 10SM CLR 16/08 A3012 RMK AO2 PWINO PNO
 
KWVI - Watsonville, California, USA
Distance from station: SSE 44km
Updated: 29/11/2021 17:53
Clear
Clear
 Wind from calm
Wind: Calm
Temperature: 11°C
Dew Point: 11°C
Humidity: 100%
Barometer: 1019 hPa
Clouds: Clear
Visibility: 13 km
2021/11/30 01:53 KWVI 300153Z AUTO 00000KT 8SM CLR 11/11 A3009 RMK AO2 SLP189 T01110111
KHAF - Half Moon Bay, California, USA
Distance from station: WNW 50km
Updated: 29/11/2021 18:35
Mist, Partly cloudy
Mist, Partly cloudy
 Wind from NNW
Wind: NNW 20 km/h
Temperature: 11°C
Dew Point: 11°C
Humidity: 100%
Barometer: 1019.6 hPa
Summary: Mist
Clouds: Partly cloudy
Visibility: 3 km
Cloud details: Partly cloudy 61 m
2021/11/30 02:35 KHAF 300235Z AUTO 33011KT 2SM BR SCT002 11/11 A3011 RMK AO2
 
KHWD - Hayward, California, USA
Distance from station: N 44km
Updated: 29/11/2021 17:54
Clear
Clear
 Wind from WNW
Wind: WNW 6 km/h
Temperature: 15°C
Dew Point: 11°C
Humidity: 77%
Barometer: 1019.3 hPa
Clouds: Clear
Visibility: 13 km
2021/11/30 01:54 KHWD 300154Z 30003KT 8SM CLR 15/11 A3010 RMK AO2 SLP202 T01500106
KLVK - Livermore, California, USA
Distance from station: NNE 51km
Updated: 29/11/2021 17:53
Clear
Clear
 Wind from calm
Wind: Calm
Temperature: 14°C
Dew Point: 9°C
Humidity: 72%
Barometer: 1019.3 hPa
Clouds: Clear
Visibility: 16 km
2021/11/30 01:53 KLVK 300153Z 00000KT 10SM CLR 14/09 A3010 RMK AO2 SLP193 T01390094